createdAt,value
2022-10-15T03:59:13.500Z,0.00
2022-10-15T04:00:13.491Z,0.00
2022-10-15T04:01:13.526Z,0.00
2022-10-15T04:02:13.481Z,0.00
2022-10-15T04:03:12.982Z,0.00
2022-10-15T04:04:12.849Z,0.00
2022-10-15T04:05:11.894Z,0.00
2022-10-15T04:06:13.469Z,0.00
2022-10-15T04:07:11.826Z,0.00
2022-10-15T04:08:14.483Z,0.00
2022-10-15T04:09:11.840Z,0.00
2022-10-15T04:10:11.807Z,0.00
2022-10-15T04:11:12.815Z,0.00
2022-10-15T04:12:11.807Z,0.00
2022-10-15T04:13:13.535Z,0.00
2022-10-15T04:14:11.828Z,0.00
2022-10-15T04:15:13.498Z,0.00
2022-10-15T04:16:11.801Z,0.00
2022-10-15T04:17:13.497Z,0.00
2022-10-15T04:18:12.792Z,0.00
2022-10-15T04:19:13.499Z,0.00
2022-10-15T04:20:12.784Z,0.00
2022-10-15T04:21:13.493Z,0.00
2022-10-15T04:22:11.768Z,0.00
2022-10-15T04:23:13.594Z,0.00
2022-10-15T04:24:13.613Z,0.00
2022-10-15T04:25:13.507Z,0.00
2022-10-15T04:26:11.749Z,0.00
2022-10-15T04:28:12.750Z,0.00
2022-10-15T04:29:13.589Z,0.00
2022-10-15T04:30:13.506Z,0.00
2022-10-15T04:31:11.739Z,0.00
2022-10-15T04:32:13.507Z,0.00
2022-10-15T04:33:13.505Z,0.00
2022-10-15T04:34:13.548Z,0.00
2022-10-15T04:35:13.523Z,0.00
2022-10-15T04:36:13.566Z,0.00
2022-10-15T04:37:13.508Z,0.00
2022-10-15T04:38:12.800Z,0.00
2022-10-15T04:39:14.653Z,0.00
2022-10-15T04:40:13.047Z,0.00
2022-10-15T04:41:13.523Z,0.00
2022-10-15T04:42:13.537Z,0.00
2022-10-15T04:43:13.499Z,0.00
2022-10-15T04:44:13.527Z,0.00
2022-10-15T04:45:11.729Z,0.00
2022-10-15T04:46:13.510Z,0.00
2022-10-15T04:47:13.536Z,0.00
2022-10-15T04:48:13.530Z,0.00
2022-10-15T04:49:13.533Z,0.00
2022-10-15T04:50:11.683Z,0.00
2022-10-15T04:51:13.542Z,0.00
2022-10-15T04:52:11.687Z,0.00
2022-10-15T04:53:13.582Z,0.00
2022-10-15T04:54:13.601Z,0.00
2022-10-15T04:55:13.538Z,0.00
2022-10-15T04:56:13.545Z,0.00
2022-10-15T04:57:13.517Z,0.00
2022-10-15T04:58:13.518Z,0.00
2022-10-15T04:59:13.527Z,0.00
2022-10-15T05:00:13.522Z,0.00
2022-10-15T05:01:13.533Z,0.00
2022-10-15T05:02:13.742Z,0.00
2022-10-15T05:03:13.534Z,0.00
2022-10-15T05:04:13.537Z,0.00
2022-10-15T05:05:13.543Z,0.00
2022-10-15T05:06:13.521Z,0.00
2022-10-15T05:07:11.614Z,0.00
2022-10-15T05:08:13.564Z,0.00
2022-10-15T05:09:13.042Z,0.00
2022-10-15T05:10:11.601Z,0.00
2022-10-15T05:11:11.607Z,0.00
2022-10-15T05:12:13.557Z,0.00
2022-10-15T05:13:13.527Z,0.00
2022-10-15T05:14:13.058Z,0.00
2022-10-15T05:15:13.580Z,0.00
2022-10-15T05:16:13.544Z,0.00
2022-10-15T05:17:13.535Z,0.00
2022-10-15T05:18:13.540Z,0.00
2022-10-15T05:19:13.553Z,0.00
2022-10-15T05:20:13.530Z,0.00
2022-10-15T05:21:13.591Z,0.00
2022-10-15T05:22:13.536Z,0.00
2022-10-15T05:23:13.545Z,0.00
2022-10-15T05:24:13.560Z,0.00
2022-10-15T05:25:13.583Z,0.00
2022-10-15T05:26:13.550Z,0.00
2022-10-15T05:27:13.062Z,0.00
2022-10-15T05:28:11.541Z,0.00
2022-10-15T05:29:13.060Z,0.00
2022-10-15T05:30:13.069Z,0.00
2022-10-15T05:31:17.525Z,0.00
2022-10-15T05:32:13.110Z,0.00
2022-10-15T05:33:12.546Z,0.00
2022-10-15T05:34:11.749Z,0.00
2022-10-15T05:35:11.531Z,0.00
2022-10-15T05:36:11.522Z,0.00
2022-10-15T05:37:13.061Z,0.00
2022-10-15T05:38:11.529Z,0.00
2022-10-15T05:39:11.538Z,0.00
2022-10-15T05:40:11.513Z,0.00
2022-10-15T05:41:11.511Z,0.00
2022-10-15T05:42:13.064Z,0.00
2022-10-15T05:43:11.516Z,0.00
2022-10-15T05:44:13.063Z,0.00
2022-10-15T05:45:12.490Z,0.00
2022-10-15T05:46:11.519Z,0.00
2022-10-15T05:47:13.054Z,0.00
2022-10-15T05:48:11.477Z,0.00
2022-10-15T05:49:13.070Z,0.00
2022-10-15T05:50:11.891Z,0.00
2022-10-15T05:51:11.470Z,0.00
2022-10-15T05:52:13.098Z,0.00
2022-10-15T05:53:11.464Z,0.00
2022-10-15T05:54:13.078Z,0.00
2022-10-15T05:55:13.074Z,0.00
2022-10-15T05:56:13.066Z,0.00
2022-10-15T05:57:13.078Z,0.00
2022-10-15T05:58:13.076Z,0.00
2022-10-15T05:59:12.539Z,0.00
2022-10-15T06:00:13.081Z,0.00
2022-10-15T06:01:13.088Z,0.00
2022-10-15T06:02:13.117Z,5.63
2022-10-15T06:03:13.068Z,5.63
2022-10-15T06:04:12.438Z,5.63
2022-10-15T06:05:13.080Z,5.63
2022-10-15T06:06:11.431Z,5.63
2022-10-15T06:07:11.425Z,5.63
2022-10-15T06:08:11.419Z,5.63
2022-10-15T06:09:13.593Z,5.63
2022-10-15T06:10:11.406Z,5.63
2022-10-15T06:11:11.409Z,5.63
2022-10-15T06:12:11.400Z,5.63
2022-10-15T06:13:11.408Z,5.63
2022-10-15T06:14:13.595Z,5.63
2022-10-15T06:15:13.086Z,5.63
2022-10-15T06:16:13.087Z,5.63
2022-10-15T06:17:13.114Z,5.63
2022-10-15T06:18:13.091Z,5.63
2022-10-15T06:19:13.087Z,5.63
2022-10-15T06:20:11.379Z,5.63
2022-10-15T06:21:11.373Z,5.63
2022-10-15T06:22:13.143Z,5.63
2022-10-15T06:23:13.095Z,5.63
2022-10-15T06:24:13.090Z,5.63
2022-10-15T06:25:13.090Z,5.63
2022-10-15T06:26:13.089Z,5.63
2022-10-15T06:27:13.123Z,5.63
2022-10-15T06:28:13.100Z,5.63
2022-10-15T06:29:13.127Z,5.63
2022-10-15T06:30:13.097Z,5.63
2022-10-15T06:31:11.379Z,5.63
2022-10-15T06:32:11.373Z,5.63
2022-10-15T06:34:12.635Z,11.25
2022-10-15T06:35:11.327Z,11.25
2022-10-15T06:36:11.345Z,11.25
2022-10-15T06:37:11.337Z,11.25
2022-10-15T06:38:13.130Z,11.25
2022-10-15T06:39:11.324Z,11.25
2022-10-15T06:40:11.343Z,11.25
2022-10-15T06:41:13.152Z,11.25
2022-10-15T06:42:11.306Z,11.25
2022-10-15T06:43:11.362Z,11.25
2022-10-15T06:44:11.357Z,11.25
2022-10-15T06:45:11.314Z,11.25
2022-10-15T06:46:13.119Z,11.25
2022-10-15T06:47:13.117Z,11.25
2022-10-15T06:48:13.161Z,11.25
2022-10-15T06:49:12.321Z,11.25
2022-10-15T06:50:13.107Z,11.25
2022-10-15T06:51:13.150Z,11.25
2022-10-15T06:52:13.122Z,11.25
2022-10-15T06:53:13.115Z,11.25
2022-10-15T06:54:11.306Z,16.88
2022-10-15T06:55:13.131Z,16.88
2022-10-15T06:56:13.150Z,16.88
2022-10-15T06:57:13.108Z,16.88
2022-10-15T06:58:12.262Z,16.88
2022-10-15T06:59:11.269Z,16.88
2022-10-15T07:00:11.251Z,16.88
2022-10-15T07:01:13.141Z,16.88
2022-10-15T07:02:11.297Z,16.88
2022-10-15T07:03:13.147Z,16.88
2022-10-15T07:04:11.260Z,16.88
2022-10-15T07:05:11.243Z,16.88
2022-10-15T07:06:13.162Z,16.88
2022-10-15T07:07:13.122Z,16.88
2022-10-15T07:08:15.505Z,16.88
2022-10-15T07:09:13.168Z,16.88
2022-10-15T07:10:11.299Z,16.88
2022-10-15T07:11:12.635Z,16.88
2022-10-15T07:12:11.230Z,22.50
2022-10-15T07:13:11.217Z,22.50
2022-10-15T07:14:11.213Z,22.50
2022-10-15T07:15:11.214Z,22.50
2022-10-15T07:16:11.206Z,22.50
2022-10-15T07:17:13.153Z,22.50
2022-10-15T07:18:11.199Z,22.50
2022-10-15T07:19:11.200Z,22.50
2022-10-15T07:20:13.147Z,22.50
2022-10-15T07:21:13.156Z,22.50
2022-10-15T07:22:13.149Z,22.50
2022-10-15T07:23:11.191Z,22.50
2022-10-15T07:24:11.215Z,28.13
2022-10-15T07:25:13.145Z,28.13
2022-10-15T07:26:12.696Z,28.13
2022-10-15T07:27:19.826Z,28.13
2022-10-15T07:28:13.153Z,28.13
2022-10-15T07:29:13.187Z,28.13
2022-10-15T07:30:13.143Z,28.13
2022-10-15T07:31:13.151Z,33.75
2022-10-15T07:32:13.145Z,33.75
2022-10-15T07:33:13.161Z,33.75
2022-10-15T07:34:13.145Z,33.75
2022-10-15T07:35:12.657Z,33.75
2022-10-15T07:36:12.684Z,33.75
2022-10-15T07:37:11.146Z,33.75
2022-10-15T07:38:12.677Z,39.38
2022-10-15T07:39:12.140Z,39.38
2022-10-15T07:40:11.135Z,39.38
2022-10-15T07:41:12.216Z,39.38
2022-10-15T07:43:12.154Z,39.38
2022-10-15T07:44:11.133Z,39.38
2022-10-15T07:45:12.668Z,39.38
2022-10-15T07:46:11.121Z,39.38
2022-10-15T07:47:12.679Z,39.38
2022-10-15T07:48:11.126Z,39.38
2022-10-15T07:49:12.709Z,39.38
2022-10-15T07:50:12.666Z,39.38
2022-10-15T07:51:12.733Z,39.38
2022-10-15T07:52:12.662Z,39.38
2022-10-15T07:53:12.738Z,39.38
2022-10-15T07:54:13.124Z,39.38
2022-10-15T07:55:12.671Z,39.38
2022-10-15T07:56:13.681Z,39.38
2022-10-15T07:57:12.691Z,39.38
2022-10-15T07:58:12.682Z,39.38
2022-10-15T07:59:12.789Z,39.38
2022-10-15T08:00:12.681Z,39.38
2022-10-15T08:01:12.686Z,39.38
2022-10-15T08:02:12.693Z,39.38
2022-10-15T08:03:12.678Z,39.38
2022-10-15T08:04:12.684Z,39.38
2022-10-15T08:05:12.689Z,39.38
2022-10-15T08:06:12.675Z,39.38
2022-10-15T08:07:12.681Z,39.38
2022-10-15T08:08:12.681Z,45.00
2022-10-15T08:09:12.725Z,45.00
2022-10-15T08:10:12.690Z,45.00
2022-10-15T08:11:12.703Z,45.00
2022-10-15T08:12:13.684Z,45.00
2022-10-15T08:13:12.700Z,50.63
2022-10-15T08:14:11.048Z,50.63
2022-10-15T08:15:12.203Z,50.63
2022-10-15T08:16:12.696Z,50.63
2022-10-15T08:17:11.048Z,45.00
2022-10-15T08:18:11.071Z,45.00
2022-10-15T08:19:12.292Z,45.00
2022-10-15T08:20:11.055Z,45.00
2022-10-15T08:21:12.703Z,45.00
2022-10-15T08:22:12.706Z,39.38
2022-10-15T08:23:12.697Z,39.38
2022-10-15T08:24:12.696Z,39.38
2022-10-15T08:25:12.046Z,39.38
2022-10-15T08:26:12.700Z,33.75
2022-10-15T08:27:12.702Z,39.38
2022-10-15T08:28:12.791Z,45.00
2022-10-15T08:29:11.247Z,39.38
2022-10-15T08:30:12.696Z,39.38
2022-10-15T08:31:11.012Z,45.00
2022-10-15T08:32:12.713Z,45.00
2022-10-15T08:33:12.696Z,45.00
2022-10-15T08:34:11.103Z,45.00
2022-10-15T08:35:10.998Z,39.38
2022-10-15T08:36:12.741Z,39.38
2022-10-15T08:38:13.514Z,33.75
2022-10-15T08:39:11.106Z,33.75
2022-10-15T08:40:10.990Z,28.13
2022-10-15T08:41:10.991Z,28.13
2022-10-15T08:42:12.718Z,33.75
2022-10-15T08:43:10.993Z,33.75
2022-10-15T08:44:10.988Z,39.38
2022-10-15T08:45:12.731Z,45.00
2022-10-15T08:46:11.040Z,45.00
2022-10-15T08:47:12.738Z,45.00
2022-10-15T08:48:10.981Z,45.00
2022-10-15T08:49:11.007Z,45.00
2022-10-15T08:50:10.973Z,45.00
2022-10-15T08:51:10.969Z,50.63
2022-10-15T08:52:12.730Z,56.25
2022-10-15T08:53:10.955Z,61.88
2022-10-15T08:54:12.710Z,67.50
2022-10-15T08:55:10.996Z,56.25
2022-10-15T08:56:12.719Z,45.00
2022-10-15T08:57:12.733Z,39.38
2022-10-15T08:58:10.945Z,39.38
2022-10-15T08:59:10.950Z,39.38
2022-10-15T09:00:12.726Z,39.38
2022-10-15T09:01:12.779Z,45.00
2022-10-15T09:02:12.719Z,61.88
2022-10-15T09:03:12.857Z,84.38
2022-10-15T09:04:12.739Z,95.63
2022-10-15T09:05:10.974Z,101.25
2022-10-15T09:06:12.742Z,118.13
2022-10-15T09:07:10.926Z,135.00
2022-10-15T09:08:10.932Z,129.38
2022-10-15T09:09:10.927Z,135.00
2022-10-15T09:10:10.923Z,118.13
2022-10-15T09:11:10.928Z,95.63
2022-10-15T09:12:12.740Z,95.63
2022-10-15T09:13:16.205Z,95.63
2022-10-15T09:14:10.915Z,101.25
2022-10-15T09:15:10.907Z,95.63
2022-10-15T09:16:11.912Z,90.00
2022-10-15T09:17:10.914Z,101.25
2022-10-15T09:18:12.773Z,112.50
2022-10-15T09:19:10.907Z,95.63
2022-10-15T09:20:12.255Z,95.63
2022-10-15T09:21:11.903Z,84.38
2022-10-15T09:22:10.897Z,67.50
2022-10-15T09:23:12.736Z,56.25
2022-10-15T09:24:12.739Z,50.63
2022-10-15T09:25:12.753Z,45.00
2022-10-15T09:26:12.754Z,45.00
2022-10-15T09:27:12.741Z,45.00
2022-10-15T09:28:12.742Z,50.63
2022-10-15T09:29:12.748Z,56.25
2022-10-15T09:30:12.773Z,56.25
2022-10-15T09:31:12.285Z,61.88
2022-10-15T09:32:12.754Z,61.88
2022-10-15T09:33:12.752Z,61.88
2022-10-15T09:34:12.763Z,67.50
2022-10-15T09:35:12.763Z,67.50
2022-10-15T09:36:12.784Z,73.13
2022-10-15T09:37:12.747Z,78.75
2022-10-15T09:38:12.745Z,84.38
2022-10-15T09:39:12.776Z,78.75
2022-10-15T09:40:12.777Z,78.75
2022-10-15T09:41:12.822Z,73.13
2022-10-15T09:42:12.769Z,73.13
2022-10-15T09:43:12.777Z,73.13
2022-10-15T09:44:12.770Z,78.75
2022-10-15T09:45:12.772Z,84.38
2022-10-15T09:46:12.755Z,90.00
2022-10-15T09:47:10.853Z,95.63
2022-10-15T09:48:12.794Z,95.63
2022-10-15T09:49:10.889Z,90.00
2022-10-15T09:50:10.928Z,95.63
2022-10-15T09:51:10.850Z,101.25
2022-10-15T09:52:12.789Z,106.88
2022-10-15T09:53:10.878Z,106.88
2022-10-15T09:54:12.778Z,112.50
2022-10-15T09:55:12.803Z,112.50
2022-10-15T09:56:12.765Z,118.13
2022-10-15T09:57:12.783Z,123.75
2022-10-15T09:58:10.837Z,129.38
2022-10-15T09:59:12.789Z,140.63
2022-10-15T10:00:11.838Z,151.88
2022-10-15T10:01:11.834Z,151.88
2022-10-15T10:02:12.872Z,151.88
2022-10-15T10:13:26.141Z,129.38
2022-10-15T10:14:25.024Z,129.38
2022-10-15T10:15:24.016Z,123.75
2022-10-15T10:16:24.012Z,146.25
2022-10-15T10:17:25.618Z,146.25
2022-10-15T10:18:24.051Z,146.25
2022-10-15T10:19:25.611Z,146.25
2022-10-15T10:20:25.623Z,140.63
2022-10-15T10:21:25.630Z,140.63
2022-10-15T10:22:26.070Z,140.63
2022-10-15T10:23:25.618Z,157.50
2022-10-15T10:24:25.627Z,157.50
2022-10-15T10:25:25.613Z,163.13
2022-10-15T10:26:25.686Z,163.13
2022-10-15T10:27:26.009Z,151.88
2022-10-15T10:28:25.684Z,157.50
2022-10-15T10:29:34.498Z,174.38
2022-10-15T10:30:25.622Z,151.88
2022-10-15T10:31:25.639Z,140.63
2022-10-15T10:32:24.005Z,118.13
2022-10-15T10:33:24.983Z,101.25
2022-10-15T10:34:23.983Z,90.00
2022-10-15T10:35:24.005Z,90.00
2022-10-15T10:36:25.655Z,84.38
2022-10-15T10:37:24.113Z,78.75
2022-10-15T10:38:25.647Z,67.50
2022-10-15T10:39:25.626Z,61.88
2022-10-15T10:40:25.639Z,61.88
2022-10-15T10:41:25.144Z,56.25
2022-10-15T10:42:25.644Z,56.25
2022-10-15T10:43:25.665Z,56.25
2022-10-15T10:44:25.634Z,56.25
2022-10-15T10:46:25.642Z,50.63
2022-10-15T10:47:25.983Z,61.88
2022-10-15T10:48:25.653Z,78.75
2022-10-15T10:49:25.642Z,95.63
2022-10-15T10:50:25.644Z,112.50
2022-10-15T10:51:25.645Z,112.50
2022-10-15T10:52:25.656Z,118.13
2022-10-15T10:53:25.650Z,123.75
2022-10-15T10:54:25.642Z,151.88
2022-10-15T10:55:25.654Z,168.75
2022-10-15T10:56:25.645Z,185.63
2022-10-15T10:57:26.070Z,196.88
2022-10-15T10:58:27.122Z,146.25
2022-10-15T10:59:25.652Z,146.25
2022-10-15T11:00:25.688Z,180.00
2022-10-15T11:01:25.659Z,247.50
2022-10-15T11:02:25.649Z,225.00
2022-10-15T11:03:25.646Z,225.00
2022-10-15T11:04:25.669Z,230.63
2022-10-15T11:05:25.670Z,236.25
2022-10-15T11:06:25.652Z,236.25
2022-10-15T11:07:24.272Z,236.25
2022-10-15T11:08:23.950Z,241.88
2022-10-15T11:09:25.679Z,247.50
2022-10-15T11:10:25.666Z,236.25
2022-10-15T11:11:25.651Z,230.63
2022-10-15T11:12:25.753Z,213.75
2022-10-15T11:13:27.657Z,196.88
2022-10-15T11:14:25.673Z,157.50
2022-10-15T11:15:25.661Z,241.88
2022-10-15T11:16:25.656Z,180.00
2022-10-15T11:17:26.114Z,185.63
2022-10-15T11:18:25.668Z,236.25
2022-10-15T11:19:54.512Z,236.25
2022-10-15T11:20:35.254Z,241.88
2022-10-15T11:21:25.714Z,208.13
2022-10-15T11:22:25.192Z,292.50
2022-10-15T11:23:27.340Z,270.00
2022-10-15T11:24:26.017Z,281.25
2022-10-15T11:25:25.689Z,275.63
2022-10-15T11:26:25.677Z,270.00
2022-10-15T11:27:25.864Z,258.75
2022-10-15T11:28:25.745Z,253.13
2022-10-15T11:29:24.707Z,292.50
2022-10-15T11:30:25.005Z,298.13
2022-10-15T11:31:25.683Z,292.50
2022-10-15T11:32:26.205Z,337.50
2022-10-15T11:33:25.699Z,343.13
2022-10-15T11:34:25.197Z,354.38
2022-10-15T11:35:40.856Z,360.00
2022-10-15T11:36:25.726Z,376.88
2022-10-15T11:37:24.707Z,382.50
2022-10-15T11:38:23.966Z,185.63
2022-10-15T11:39:23.972Z,399.38
2022-10-15T11:40:24.023Z,388.13
2022-10-15T11:41:25.205Z,399.38
2022-10-15T11:42:24.189Z,410.63
2022-10-15T11:43:23.994Z,444.38
2022-10-15T11:44:23.975Z,450.00
2022-10-15T11:45:25.698Z,219.38
2022-10-15T11:46:25.207Z,438.75
2022-10-15T11:47:23.981Z,450.00
2022-10-15T11:48:25.708Z,354.38
2022-10-15T11:49:25.063Z,444.38
2022-10-15T11:50:25.697Z,483.75
2022-10-15T11:51:25.004Z,455.63
2022-10-15T11:52:26.189Z,371.25
2022-10-15T11:53:25.224Z,478.13
2022-10-15T11:54:25.699Z,500.63
2022-10-15T11:55:25.729Z,500.63
2022-10-15T11:56:25.710Z,495.00
2022-10-15T11:57:26.768Z,478.13
2022-10-15T11:58:25.041Z,495.00
2022-10-15T11:59:25.721Z,495.00
2022-10-15T12:00:25.719Z,444.38
2022-10-15T12:01:25.750Z,478.13
2022-10-15T12:02:25.962Z,511.88
2022-10-15T12:03:25.726Z,523.13
2022-10-15T12:04:28.917Z,675.00
2022-10-15T12:05:24.054Z,826.88
2022-10-15T12:06:25.061Z,871.88
2022-10-15T12:07:24.051Z,1181.25
2022-10-15T12:08:25.744Z,759.38
2022-10-15T12:09:24.069Z,601.88
2022-10-15T12:10:24.081Z,601.88
2022-10-15T12:11:25.231Z,450.00
2022-10-15T12:12:25.987Z,697.50
2022-10-15T12:13:25.763Z,849.38
2022-10-15T12:14:25.754Z,658.13
2022-10-15T12:15:25.747Z,618.75
2022-10-15T12:16:25.740Z,1203.75
2022-10-15T12:17:24.108Z,438.75
2022-10-15T12:18:25.745Z,1721.25
2022-10-15T12:19:25.752Z,1715.63
2022-10-15T12:20:25.750Z,1771.88
2022-10-15T12:21:25.746Z,1490.63
2022-10-15T12:22:24.881Z,1783.13
2022-10-15T12:23:25.753Z,1822.50
2022-10-15T12:24:25.788Z,1721.25
2022-10-15T12:25:25.748Z,1805.63
2022-10-15T12:26:25.739Z,596.25
2022-10-15T12:27:26.045Z,990.00
2022-10-15T12:28:25.831Z,1856.25
2022-10-15T12:29:25.743Z,1462.50
2022-10-15T12:30:25.752Z,894.38
2022-10-15T12:31:24.162Z,225.00
2022-10-15T12:32:25.774Z,202.50
2022-10-15T12:33:25.259Z,191.25
2022-10-15T12:34:25.757Z,168.75
2022-10-15T12:35:24.185Z,213.75
2022-10-15T12:36:24.175Z,253.13
2022-10-15T12:37:24.439Z,202.50
2022-10-15T12:38:24.192Z,900.00
2022-10-15T12:39:51.007Z,956.25
2022-10-15T12:40:25.765Z,466.88
2022-10-15T12:41:24.205Z,213.75
2022-10-15T12:42:24.204Z,129.38
2022-10-15T12:43:25.206Z,101.25
2022-10-15T12:45:25.779Z,101.25
2022-10-15T12:46:25.763Z,84.38
2022-10-15T12:47:26.104Z,78.75
2022-10-15T12:48:25.763Z,78.75
2022-10-15T12:49:25.768Z,73.13
2022-10-15T12:50:25.788Z,73.13
2022-10-15T12:51:25.770Z,73.13
2022-10-15T12:52:25.767Z,90.00
2022-10-15T12:53:25.963Z,90.00
2022-10-15T12:54:25.770Z,90.00
2022-10-15T12:55:25.769Z,90.00
2022-10-15T12:56:25.794Z,106.88
2022-10-15T12:57:26.089Z,163.13
2022-10-15T12:58:25.812Z,168.75
2022-10-15T12:59:25.778Z,151.88
2022-10-15T13:00:25.777Z,140.63
2022-10-15T13:01:25.882Z,106.88
2022-10-15T13:02:25.799Z,90.00
2022-10-15T13:03:25.812Z,95.63
2022-10-15T13:04:25.776Z,78.75
2022-10-15T13:05:25.791Z,67.50
2022-10-15T13:06:25.845Z,61.88
2022-10-15T13:07:26.116Z,61.88
2022-10-15T13:08:25.314Z,61.88
2022-10-15T13:09:24.287Z,50.63
2022-10-15T13:10:24.287Z,50.63
2022-10-15T13:11:24.268Z,50.63
2022-10-15T13:12:24.446Z,56.25
2022-10-15T13:13:24.285Z,50.63
2022-10-15T13:14:25.808Z,56.25
2022-10-15T13:15:24.269Z,56.25
2022-10-15T13:16:25.287Z,45.00
2022-10-15T13:17:24.274Z,39.38
2022-10-15T13:18:24.275Z,45.00
2022-10-15T13:19:25.828Z,45.00
2022-10-15T13:20:25.286Z,56.25
2022-10-15T13:21:24.274Z,73.13
2022-10-15T13:22:25.693Z,112.50
2022-10-15T13:23:32.249Z,185.63
2022-10-15T13:24:24.268Z,146.25
2022-10-15T13:25:24.286Z,112.50
2022-10-15T13:26:25.800Z,78.75
2022-10-15T13:27:25.820Z,73.13
2022-10-15T13:28:25.365Z,73.13
2022-10-15T13:29:25.806Z,78.75
2022-10-15T13:30:25.827Z,73.13
2022-10-15T13:31:29.153Z,56.25
2022-10-15T13:32:26.274Z,61.88
2022-10-15T13:33:25.822Z,61.88
2022-10-15T13:34:25.818Z,67.50
2022-10-15T13:35:24.287Z,61.88
2022-10-15T13:36:24.280Z,56.25
2022-10-15T13:37:25.830Z,50.63
2022-10-15T13:38:24.281Z,50.63
2022-10-15T13:39:24.336Z,50.63
2022-10-15T13:40:24.282Z,56.25
2022-10-15T13:41:24.318Z,56.25
2022-10-15T13:42:26.264Z,45.00
2022-10-15T13:43:25.286Z,33.75
2022-10-15T13:44:24.293Z,39.38
2022-10-15T13:45:24.294Z,39.38
2022-10-15T13:46:25.274Z,39.38
2022-10-15T13:47:25.335Z,45.00
2022-10-15T13:48:25.827Z,50.63
2022-10-15T13:49:28.753Z,50.63
2022-10-15T13:50:25.856Z,45.00
2022-10-15T13:51:25.860Z,45.00
2022-10-15T13:52:26.319Z,50.63
2022-10-15T13:53:25.850Z,50.63
2022-10-15T13:54:25.879Z,50.63
2022-10-15T13:55:25.844Z,50.63
2022-10-15T13:56:25.275Z,56.25
2022-10-15T13:57:25.843Z,56.25
2022-10-15T13:58:27.610Z,67.50
2022-10-15T13:59:25.836Z,56.25
2022-10-15T14:00:25.889Z,45.00
2022-10-15T14:01:25.846Z,39.38
2022-10-15T14:02:24.705Z,33.75
2022-10-15T14:03:25.875Z,33.75
2022-10-15T14:04:25.868Z,39.38
2022-10-15T14:05:25.845Z,39.38
2022-10-15T14:06:25.851Z,33.75
2022-10-15T14:07:26.245Z,28.13
2022-10-15T14:08:25.869Z,33.75
2022-10-15T14:09:25.867Z,39.38
2022-10-15T14:10:25.845Z,39.38
2022-10-15T14:11:25.872Z,45.00
2022-10-15T14:12:25.855Z,45.00
2022-10-15T14:13:25.875Z,39.38
2022-10-15T14:14:25.845Z,33.75
2022-10-15T14:15:25.895Z,28.13
2022-10-15T14:16:25.880Z,28.13
2022-10-15T14:17:24.518Z,28.13
2022-10-15T14:18:25.846Z,28.13
2022-10-15T14:19:25.265Z,22.50
2022-10-15T14:20:27.587Z,22.50
2022-10-15T14:21:25.880Z,22.50
2022-10-15T14:22:25.883Z,22.50
2022-10-15T14:23:25.247Z,22.50
2022-10-15T14:24:25.856Z,22.50
2022-10-15T14:25:25.880Z,28.13
2022-10-15T14:26:24.881Z,33.75
2022-10-15T14:27:26.193Z,33.75
2022-10-15T14:28:25.928Z,28.13
2022-10-15T14:29:25.881Z,28.13
2022-10-15T14:30:25.885Z,22.50
2022-10-15T14:31:25.885Z,22.50
2022-10-15T14:32:25.865Z,22.50
2022-10-15T14:33:25.910Z,22.50
2022-10-15T14:34:25.379Z,28.13
2022-10-15T14:35:25.865Z,22.50
2022-10-15T14:36:25.913Z,16.88
2022-10-15T14:37:26.140Z,16.88
2022-10-15T14:38:25.407Z,11.25
2022-10-15T14:39:25.889Z,11.25
2022-10-15T14:40:25.870Z,11.25
2022-10-15T14:41:25.389Z,11.25
2022-10-15T14:42:24.219Z,11.25
2022-10-15T14:43:25.887Z,11.25
2022-10-15T14:44:25.916Z,11.25
2022-10-15T14:45:25.954Z,11.25
2022-10-15T14:46:25.902Z,5.63
2022-10-15T14:47:24.723Z,5.63
2022-10-15T14:48:24.198Z,11.25
2022-10-15T14:49:24.195Z,11.25
2022-10-15T14:50:24.225Z,11.25
2022-10-15T14:51:25.395Z,16.88
2022-10-15T14:52:24.251Z,22.50
2022-10-15T14:53:24.196Z,33.75
2022-10-15T14:54:24.189Z,22.50
2022-10-15T14:55:25.892Z,11.25
2022-10-15T14:56:25.895Z,11.25
2022-10-15T14:57:24.443Z,16.88
2022-10-15T14:58:25.397Z,16.88
2022-10-15T14:59:24.176Z,16.88
2022-10-15T15:00:24.174Z,16.88
2022-10-15T15:01:25.916Z,11.25
2022-10-15T15:02:24.360Z,11.25
2022-10-15T15:03:25.965Z,11.25
2022-10-15T15:04:25.904Z,11.25
2022-10-15T15:05:25.898Z,11.25
2022-10-15T15:06:25.894Z,5.63
2022-10-15T15:07:25.906Z,11.25
2022-10-15T15:08:25.898Z,11.25
2022-10-15T15:09:25.921Z,11.25
2022-10-15T15:10:25.895Z,5.63
2022-10-15T15:11:25.899Z,5.63
2022-10-15T15:12:27.782Z,11.25
2022-10-15T15:13:25.916Z,11.25
2022-10-15T15:14:25.925Z,5.63
2022-10-15T15:15:24.141Z,11.25
2022-10-15T15:16:25.946Z,11.25
2022-10-15T15:17:25.943Z,11.25
2022-10-15T15:18:24.135Z,11.25
2022-10-15T15:19:25.940Z,11.25
2022-10-15T15:20:24.134Z,5.63
2022-10-15T15:21:25.146Z,11.25
2022-10-15T15:22:26.151Z,11.25
2022-10-15T15:23:25.912Z,11.25
2022-10-15T15:24:25.933Z,5.63
2022-10-15T15:25:25.913Z,5.63
2022-10-15T15:26:25.911Z,5.63
2022-10-15T15:27:25.910Z,5.63
2022-10-15T15:28:26.019Z,5.63
2022-10-15T15:29:25.928Z,5.63
2022-10-15T15:30:25.920Z,5.63
2022-10-15T15:31:24.109Z,5.63
2022-10-15T15:32:26.384Z,11.25
2022-10-15T15:33:25.979Z,11.25
2022-10-15T15:34:24.106Z,11.25
2022-10-15T15:35:25.940Z,11.25
2022-10-15T15:36:25.919Z,5.63
2022-10-15T15:37:25.934Z,5.63
2022-10-15T15:38:26.033Z,5.63
2022-10-15T15:39:25.939Z,5.63
2022-10-15T15:40:25.921Z,0.00
2022-10-15T15:41:25.934Z,0.00
2022-10-15T15:42:26.179Z,5.63
2022-10-15T15:43:25.096Z,5.63
2022-10-15T15:44:24.099Z,5.63
2022-10-15T15:45:24.082Z,5.63
2022-10-15T15:46:24.075Z,5.63
2022-10-15T15:47:26.018Z,5.63
2022-10-15T15:48:24.062Z,11.25
2022-10-15T15:49:24.131Z,11.25
2022-10-15T15:50:24.072Z,5.63
2022-10-15T15:51:24.060Z,5.63
2022-10-15T15:52:26.421Z,5.63
2022-10-15T15:53:25.048Z,5.63
2022-10-15T15:54:24.051Z,5.63
2022-10-15T15:55:26.959Z,11.25
2022-10-15T15:56:25.522Z,11.25
2022-10-15T15:57:26.270Z,11.25
2022-10-15T15:58:25.448Z,11.25
2022-10-15T15:59:25.979Z,11.25
2022-10-15T16:00:24.049Z,16.88
2022-10-15T16:12:35.901Z,11.25
2022-10-15T16:13:35.854Z,5.63
2022-10-15T16:14:34.271Z,5.63
2022-10-15T16:15:35.857Z,5.63
2022-10-15T16:16:35.869Z,5.63
2022-10-15T16:17:35.867Z,5.63
2022-10-15T16:18:35.883Z,5.63
2022-10-15T16:19:34.234Z,5.63
2022-10-15T16:20:35.393Z,5.63
2022-10-15T16:21:35.239Z,0.00
2022-10-15T16:22:34.227Z,0.00
2022-10-15T16:23:35.860Z,0.00
2022-10-15T16:24:35.870Z,0.00
2022-10-15T16:25:35.886Z,0.00
2022-10-15T16:26:35.863Z,0.00
2022-10-15T16:27:35.866Z,0.00
2022-10-15T16:28:35.991Z,0.00
2022-10-15T16:29:34.213Z,0.00
2022-10-15T16:30:35.870Z,0.00
2022-10-15T16:31:35.889Z,0.00
2022-10-15T16:32:35.885Z,0.00
2022-10-15T16:33:35.902Z,0.00
2022-10-15T16:34:35.871Z,0.00
2022-10-15T16:35:35.873Z,0.00
2022-10-15T16:36:35.386Z,0.00
2022-10-15T16:37:34.189Z,0.00
2022-10-15T16:38:35.873Z,0.00
2022-10-15T16:39:35.391Z,0.00
2022-10-15T16:40:34.166Z,0.00
2022-10-15T16:41:35.902Z,0.00
2022-10-15T16:42:34.171Z,0.00
2022-10-15T16:43:34.174Z,0.00
2022-10-15T16:44:35.888Z,0.00
2022-10-15T16:45:35.404Z,0.00
2022-10-15T16:46:35.882Z,0.00
2022-10-15T16:47:34.149Z,0.00
2022-10-15T16:48:35.902Z,0.00
2022-10-15T16:49:34.154Z,0.00
2022-10-15T16:50:34.149Z,0.00
2022-10-15T16:51:37.414Z,0.00
2022-10-15T16:52:34.136Z,0.00
2022-10-15T16:53:34.142Z,0.00
2022-10-15T16:54:35.925Z,0.00
2022-10-15T16:55:35.914Z,0.00
2022-10-15T16:56:35.898Z,0.00
2022-10-15T16:57:34.127Z,0.00
2022-10-15T16:58:35.908Z,0.00
2022-10-15T16:59:35.930Z,0.00
2022-10-15T17:00:35.967Z,0.00
2022-10-15T17:01:36.037Z,0.00
2022-10-15T17:02:35.904Z,0.00
2022-10-15T17:03:35.894Z,0.00
2022-10-15T17:04:35.914Z,0.00
2022-10-15T17:05:35.899Z,0.00
2022-10-15T17:06:36.421Z,0.00
2022-10-15T17:07:35.907Z,0.00
2022-10-15T17:08:35.928Z,0.00
2022-10-15T17:09:34.113Z,0.00
2022-10-15T17:10:35.421Z,0.00
2022-10-15T17:11:35.085Z,0.00
2022-10-15T17:12:35.908Z,0.00
2022-10-15T17:13:35.424Z,0.00
2022-10-15T17:14:35.921Z,0.00
2022-10-15T17:15:35.924Z,0.00
2022-10-15T17:16:35.918Z,0.00
2022-10-15T17:17:34.059Z,0.00
2022-10-15T17:18:35.918Z,0.00
2022-10-15T17:19:35.912Z,0.00
2022-10-15T17:20:36.482Z,0.00
2022-10-15T17:21:35.939Z,0.00